Time;durP1;ratioP1;P1;durP2;ratioP2;P2;SDS_P1;SDS_P2;PMS_P1;PMS_P2;Temp;Humidity;BMP_temperature;BMP_pressure;BME280_temperature;BME280_humidity;BME280_pressure;Samples;Min_cycle;Max_cycle;Signal;HPM_P1;HPM_P2
2022/11/09 00:29:37;;;;;;;19.27;12.02;;;;;;;;;;10244265;23;20758;-93
2022/11/09 00:35:38;;;;;;;;;;;;;;;;;;;;;
2022/11/09 01:04:46;;;;;;;17.23;10.20;;;;;;;;;;10008671;29;20420;-93
2022/11/09 01:16:34;;;;;;;16.60;9.90;;;;;;;;;;9959698;29;20427;-90
2022/11/09 01:39:40;;;;;;;15.70;10.30;;;;;;;;;;10156435;29;20441;-93
2022/11/09 02:20:27;;;;;;;16.10;9.80;;;;;;;;;;10034764;29;20529;-94
2022/11/09 02:26:22;;;;;;;15.95;9.45;;;;;;;;;;9961559;29;20427;-94
2022/11/09 04:49:05;;;;;;;;;;;;;;;;;;;;;
2022/11/09 05:31:22;;;;;;;12.80;7.68;;;;;;;;;;9919642;29;20751;-93
2022/11/09 05:42:09;;;;;;;10.98;8.13;;;;;;;;;;10186514;23;20442;-93
2022/11/09 05:47:49;;;;;;;;;;;;;;;;;;;;;
2022/11/09 06:04:46;;;;;;;12.77;7.30;;;;;;;;;;10031572;29;21939;-92
2022/11/09 06:09:48;;;;;;;13.32;7.22;;;;;;;;;;10128163;29;20418;-92
2022/11/09 06:14:52;;;;;;;10.65;7.13;;;;;;;;;;10147121;29;20425;-92
2022/11/09 06:19:55;;;;;;;13.93;7.60;;;;;;;;;;10148156;29;20495;-94
2022/11/09 06:24:57;;;;;;;9.48;6.70;;;;;;;;;;10164800;29;20416;-94
2022/11/09 06:30:01;;;;;;;11.83;6.83;;;;;;;;;;10256380;23;20431;-95
2022/11/09 06:35:05;;;;;;;10.85;7.10;;;;;;;;;;10209180;28;20409;-96
2022/11/09 06:40:09;;;;;;;10.80;6.70;;;;;;;;;;10207797;29;20921;-96
2022/11/09 06:45:31;;;;;;;10.87;6.87;;;;;;;;;;10192954;29;20419;-96
2022/11/09 06:50:41;;;;;;;11.97;6.70;;;;;;;;;;10211973;29;20427;-96
2022/11/09 06:55:45;;;;;;;11.10;6.78;;;;;;;;;;10180761;29;20425;-96
2022/11/09 07:06:55;;;;;;;10.18;6.30;;;;;;;;;;10496633;23;20425;-96
2022/11/09 07:11:57;;;;;;;11.80;7.57;;;;;;;;;;10158603;29;20899;-94
2022/11/09 07:16:58;;;;;;;11.03;7.27;;;;;;;;;;10172126;29;20424;-95
2022/11/09 07:22:02;;;;;;;10.25;7.20;;;;;;;;;;10156297;29;20487;-95
2022/11/09 07:27:04;;;;;;;11.10;7.45;;;;;;;;;;10166079;29;20527;-96
2022/11/09 07:32:06;;;;;;;11.60;7.35;;;;;;;;;;10167749;29;20447;-94
2022/11/09 07:37:09;;;;;;;13.00;8.73;;;;;;;;;;10180465;29;20421;-95
2022/11/09 07:42:11;;;;;;;14.67;8.30;;;;;;;;;;10169447;29;20519;-95
2022/11/09 07:47:13;;;;;;;13.75;9.13;;;;;;;;;;10143881;29;20519;-95
2022/11/09 07:52:17;;;;;;;13.77;8.68;;;;;;;;;;10176893;29;20415;-93
2022/11/09 07:57:19;;;;;;;13.45;8.73;;;;;;;;;;10209127;29;20972;-96
2022/11/09 08:02:21;;;;;;;12.23;8.87;;;;;;;;;;10164297;29;20467;-94
2022/11/09 08:07:25;;;;;;;15.05;8.73;;;;;;;;;;10148727;29;20456;-92
2022/11/09 08:12:27;;;;;;;15.68;9.10;;;;;;;;;;10152941;29;20429;-95
2022/11/09 08:17:29;;;;;;;15.10;8.70;;;;;;;;;;10149043;29;20427;-94
2022/11/09 08:22:32;;;;;;;15.00;9.23;;;;;;;;;;10152323;29;20463;-96
2022/11/09 08:27:38;;;;;;;13.60;9.27;;;;;;;;;;10156860;29;20835;-93
2022/11/09 08:32:41;;;;;;;18.35;9.40;;;;;;;;;;10170953;23;20419;-94
2022/11/09 08:37:52;;;;;;;16.13;9.27;;;;;;;;;;10161382;29;20424;-94
2022/11/09 08:42:54;;;;;;;14.95;9.50;;;;;;;;;;10154451;29;20431;-95
2022/11/09 08:48:00;;;;;;;19.35;9.82;;;;;;;;;;10165281;29;20427;-94
2022/11/09 08:53:04;;;;;;;15.63;9.45;;;;;;;;;;10164527;29;20423;-94
2022/11/09 08:58:06;;;;;;;13.80;9.07;;;;;;;;;;10170118;29;20450;-95
2022/11/09 09:03:35;;;;;;;13.43;9.27;;;;;;;;;;10187193;29;20435;-96
2022/11/09 09:08:41;;;;;;;16.17;9.23;;;;;;;;;;10269342;23;20959;-94
2022/11/09 09:13:43;;;;;;;14.60;9.67;;;;;;;;;;10202142;29;20448;-92
2022/11/09 09:18:48;;;;;;;14.57;9.13;;;;;;;;;;10202558;29;20490;-92
2022/11/09 09:23:52;;;;;;;13.20;8.63;;;;;;;;;;10193769;29;20421;-94
2022/11/09 09:28:54;;;;;;;13.57;9.10;;;;;;;;;;10186568;29;20445;-94
2022/11/09 09:33:56;;;;;;;15.93;9.00;;;;;;;;;;10194763;29;20425;-94
2022/11/09 09:39:00;;;;;;;13.85;9.20;;;;;;;;;;10193857;29;20505;-93
2022/11/09 09:44:12;;;;;;;16.33;9.55;;;;;;;;;;10197247;29;20971;-94
2022/11/09 09:49:18;;;;;;;14.70;9.43;;;;;;;;;;10205037;29;20503;-94
2022/11/09 09:54:29;;;;;;;15.50;9.40;;;;;;;;;;10193459;29;20453;-94
2022/11/09 09:59:50;;;;;;;13.60;9.40;;;;;;;;;;10197768;29;20863;-94
2022/11/09 10:04:55;;;;;;;12.53;8.70;;;;;;;;;;10195750;29;20553;-92
2022/11/09 10:10:36;;;;;;;14.20;8.90;;;;;;;;;;10196829;29;20585;-94
2022/11/09 10:15:48;;;;;;;11.77;7.50;;;;;;;;;;10203952;29;20425;-94
2022/11/09 12:11:31;;;;;;;24.30;14.60;;;;;;;;;;11410277;23;20483;-95
2022/11/09 12:16:41;;;;;;;24.08;14.95;;;;;;;;;;10006313;29;20869;-93
2022/11/09 12:56:50;;;;;;;23.60;14.70;;;;;;;;;;10185314;29;20946;-96
2022/11/09 15:20:44;;;;;;;32.55;19.55;;;;;;;;;;11085037;23;20436;-89
2022/11/09 15:26:14;;;;;;;36.83;19.15;;;;;;;;;;10169912;29;20491;-90
2022/11/09 18:58:38;;;;;;;;;;;;;;;;;;;;;
2022/11/09 19:09:57;;;;;;;49.15;31.33;;;;;;;;;;10114354;29;21182;-94
2022/11/09 19:21:05;;;;;;;53.23;34.40;;;;;;;;;;9795988;29;20421;-94
2022/11/09 19:26:26;;;;;;;45.58;28.95;;;;;;;;;;9994739;29;20447;-93
2022/11/09 19:32:07;;;;;;;43.90;29.38;;;;;;;;;;10074501;29;20429;-93
2022/11/09 20:00:49;;;;;;;42.17;26.92;;;;;;;;;;9968752;29;21021;-95
2022/11/09 20:06:30;;;;;;;44.53;29.80;;;;;;;;;;9984487;29;20440;-95
2022/11/09 20:45:24;;;;;;;42.28;27.77;;;;;;;;;;9967836;29;20461;-94
2022/11/09 20:51:33;;;;;;;;;;;;;;;;;;;;;
2022/11/09 21:08:32;;;;;;;40.17;26.73;;;;;;;;;;10035992;29;20408;-94
